Index of /wp-content/uploads/2026/01/

NameLast ModifiedSize
UpParent Directory
[IMG]13-Jan-26-pdf-106x150.jpg2026-01-14 12:35 5k
[IMG]13-Jan-26-pdf-212x300.jpg2026-01-14 12:35 15k
[IMG]13-Jan-26-pdf-724x1024.jpg2026-01-14 12:35 116k
[IMG]13-Jan-26-pdf.jpg2026-01-14 12:35 204k
File13-Jan-26.pdf2026-01-14 12:35 105k
[IMG]27-Jan-26-pdf-106x150.jpg2026-01-28 10:56 5k
[IMG]27-Jan-26-pdf-212x300.jpg2026-01-28 10:55 15k
[IMG]27-Jan-26-pdf-724x1024.jpg2026-01-28 10:55 124k
[IMG]27-Jan-26-pdf.jpg2026-01-28 10:55 216k
File27-Jan-26.pdf2026-01-28 10:55 112k
[IMG]Ame-Jan-26-pdf-106x150.jpg2026-01-21 12:53 5k
[IMG]Ame-Jan-26-pdf-212x300.jpg2026-01-21 12:53 15k
[IMG]Ame-Jan-26-pdf-724x1024.jpg2026-01-21 12:53 125k
[IMG]Ame-Jan-26-pdf.jpg2026-01-21 12:53 224k
FileAme-Jan-26.pdf2026-01-21 12:53 112k
[IMG]Amen-Jan-26-pdf-116x150.jpg2026-01-15 10:43 4k
[IMG]Amen-Jan-26-pdf-232x300.jpg2026-01-15 10:43 11k
[IMG]Amen-Jan-26-pdf-791x1024.jpg2026-01-15 10:43 74k
[IMG]Amen-Jan-26-pdf.jpg2026-01-15 10:43 126k
FileAmen-Jan-26.pdf2026-01-15 10:43 108k
[IMG]FC-Agenda-Jan-26-pdf-116x150.jpg2026-01-22 10:56 5k
[IMG]FC-Agenda-Jan-26-pdf-232x300.jpg2026-01-22 10:56 17k
[IMG]FC-Agenda-Jan-26-pdf-791x1024.jpg2026-01-22 10:56 136k
[IMG]FC-Agenda-Jan-26-pdf.jpg2026-01-22 10:56 223k
FileFC-Agenda-Jan-26.pdf2026-01-22 10:56 141k
[IMG]HR-27th-January-2026-pdf-116x150.jpg2026-01-22 10:56 3k
[IMG]HR-27th-January-2026-pdf-232x300.jpg2026-01-22 10:56 10k
[IMG]HR-27th-January-2026-pdf-791x1024.jpg2026-01-22 10:56 65k
[IMG]HR-27th-January-2026-pdf.jpg2026-01-22 10:56 103k
FileHR-27th-January-2026.pdf2026-01-22 10:56 96k
[IMG]Kirk-Hill-Newsletter-January-2026-pdf-104x150.jpg2026-01-15 12:32 6k
[IMG]Kirk-Hill-Newsletter-January-2026-pdf-208x300.jpg2026-01-15 12:32 19k
[IMG]Kirk-Hill-Newsletter-January-2026-pdf-709x1024.jpg2026-01-15 12:32 131k
[IMG]Kirk-Hill-Newsletter-January-2026-pdf.jpg2026-01-15 12:32 217k
FileKirk-Hill-Newsletter-January-2026.pdf2026-01-15 12:32 937k
[IMG]PA-27-January-26-pdf-116x150.jpg2026-01-22 10:56 4k
[IMG]PA-27-January-26-pdf-232x300.jpg2026-01-22 10:56 12k
[IMG]PA-27-January-26-pdf-791x1024.jpg2026-01-22 10:56 81k
[IMG]PA-27-January-26-pdf.jpg2026-01-22 10:56 137k
FilePA-27-January-26.pdf2026-01-22 10:56 97k
[IMG]PF-Jan-26-pdf-116x150.jpg2026-01-08 10:00 4k
[IMG]PF-Jan-26-pdf-232x300.jpg2026-01-08 10:00 11k
[IMG]PF-Jan-26-pdf-791x1024.jpg2026-01-08 10:00 83k
[IMG]PF-Jan-26-pdf.jpg2026-01-08 10:00 137k
FilePF-Jan-26.pdf2026-01-08 10:00 100k
Proudly Served by LiteSpeed Web Server at east-leake.gov.uk Port 80